createdAt,value
2018-01-24T00:00:41.443Z,36.70
2018-01-24T00:03:09.600Z,37.17
2018-01-24T00:05:37.609Z,37.80
2018-01-24T00:08:05.063Z,38.57
2018-01-24T00:10:32.524Z,40.30
2018-01-24T00:13:00.602Z,38.07
2018-01-24T00:15:28.057Z,40.67
2018-01-24T00:17:55.524Z,39.70
2018-01-24T00:20:23.285Z,40.67
2018-01-24T00:22:50.747Z,37.10
2018-01-24T00:25:18.211Z,35.90
2018-01-24T00:27:46.276Z,40.60
2018-01-24T00:30:13.731Z,37.87
2018-01-24T00:32:41.193Z,35.83
2018-01-24T00:35:10.815Z,36.83
2018-01-24T00:37:38.273Z,33.80
2018-01-24T00:40:05.741Z,32.00
2018-01-24T00:42:33.488Z,32.20
2018-01-24T00:45:00.940Z,30.10
2018-01-24T00:47:28.389Z,30.90
2018-01-24T00:49:56.177Z,32.80
2018-01-24T00:52:23.624Z,31.97
2018-01-24T00:54:51.076Z,31.40
2018-01-24T00:57:18.865Z,35.60
2018-01-24T00:59:46.313Z,31.57
2018-01-24T01:02:13.770Z,31.90
2018-01-24T01:04:41.860Z,33.73
2018-01-24T01:07:09.324Z,31.47
2018-01-24T01:09:36.786Z,32.73
2018-01-24T01:12:04.561Z,29.40
2018-01-24T01:14:32.016Z,32.60
2018-01-24T01:16:59.477Z,30.47
2018-01-24T01:19:27.228Z,29.07
2018-01-24T01:21:54.674Z,32.20
2018-01-24T01:24:22.133Z,31.20
2018-01-24T01:26:49.922Z,30.40
2018-01-24T01:29:17.393Z,31.80
2018-01-24T01:31:44.856Z,31.30
2018-01-24T01:34:12.604Z,33.70
2018-01-24T01:36:40.064Z,36.47
2018-01-24T01:39:07.529Z,32.67
2018-01-24T01:41:35.566Z,31.47
2018-01-24T01:44:03.031Z,35.23
2018-01-24T01:46:30.488Z,34.73
2018-01-24T01:48:58.290Z,31.70
2018-01-24T01:51:25.752Z,35.30
2018-01-24T01:53:53.216Z,38.03
2018-01-24T01:56:20.976Z,34.13
2018-01-24T01:58:48.448Z,33.47
2018-01-24T02:01:15.904Z,36.37
2018-01-24T02:03:43.980Z,35.50
2018-01-24T02:06:11.781Z,36.63
2018-01-24T02:08:39.231Z,35.90
2018-01-24T02:11:07.590Z,37.67
2018-01-24T02:13:35.040Z,35.70
2018-01-24T02:16:02.492Z,36.73
2018-01-24T02:18:30.231Z,33.77
2018-01-24T02:20:57.704Z,33.93
2018-01-24T02:23:25.167Z,34.50
2018-01-24T02:25:52.968Z,37.47
2018-01-24T02:28:20.434Z,38.57
2018-01-24T02:30:47.892Z,36.27
2018-01-24T02:33:16.256Z,38.80
2018-01-24T02:35:43.717Z,37.00
2018-01-24T02:38:23.461Z,39.23
2018-01-24T02:40:50.920Z,38.17
2018-01-24T02:43:18.372Z,37.53
2018-01-24T02:45:46.157Z,36.70
2018-01-24T02:48:13.618Z,36.23
2018-01-24T02:50:41.252Z,35.40
2018-01-24T02:53:09.374Z,33.97
2018-01-24T02:55:36.832Z,34.90
2018-01-24T02:58:04.289Z,35.10
2018-01-24T03:00:32.146Z,34.00
2018-01-24T03:02:59.604Z,34.90
2018-01-24T03:05:27.053Z,33.90
2018-01-24T03:07:55.471Z,35.50
2018-01-24T03:10:22.934Z,33.57
2018-01-24T03:12:50.393Z,35.17
2018-01-24T03:15:18.134Z,30.77
2018-01-24T03:17:45.591Z,33.97
2018-01-24T03:20:13.059Z,34.13
2018-01-24T03:22:41.081Z,32.90
2018-01-24T03:25:08.532Z,32.70
2018-01-24T03:27:35.988Z,32.30
2018-01-24T03:30:03.585Z,33.80
2018-01-24T03:32:31.044Z,33.20
2018-01-24T03:34:58.505Z,35.40
2018-01-24T03:37:26.233Z,35.90
2018-01-24T03:39:53.673Z,34.90
2018-01-24T03:42:21.128Z,33.93
2018-01-24T03:44:48.879Z,35.33
2018-01-24T03:47:16.345Z,32.80
2018-01-24T03:49:43.801Z,33.07
2018-01-24T03:52:11.551Z,35.73
2018-01-24T03:54:38.993Z,33.97
2018-01-24T03:57:06.448Z,34.50
2018-01-24T03:59:34.257Z,30.90
2018-01-24T04:02:01.736Z,29.20
2018-01-24T04:04:29.197Z,28.63
2018-01-24T04:06:56.947Z,28.43
2018-01-24T04:09:25.061Z,27.50
2018-01-24T04:11:52.525Z,28.40
2018-01-24T04:14:20.240Z,30.57
2018-01-24T04:16:47.701Z,29.00
2018-01-24T04:19:15.165Z,29.20
2018-01-24T04:21:42.933Z,27.07
2018-01-24T04:24:10.397Z,31.60
2018-01-24T04:26:37.857Z,26.37
2018-01-24T04:29:05.733Z,25.30
2018-01-24T04:31:33.192Z,29.50
2018-01-24T04:34:00.674Z,29.10
2018-01-24T04:36:28.500Z,23.40
2018-01-24T04:38:55.953Z,21.47
2018-01-24T04:41:23.401Z,19.73
2018-01-24T04:43:51.297Z,18.47
2018-01-24T04:46:18.756Z,17.90
2018-01-24T04:48:46.216Z,16.23
2018-01-24T04:51:13.982Z,16.40
2018-01-24T04:53:41.428Z,17.23
2018-01-24T04:56:08.893Z,16.53
2018-01-24T04:58:36.921Z,16.30
2018-01-24T05:01:04.381Z,15.17
2018-01-24T05:03:31.835Z,15.20
2018-01-24T05:05:59.664Z,13.40
2018-01-24T05:08:27.125Z,14.60
2018-01-24T05:10:55.277Z,14.00
2018-01-24T05:13:22.969Z,15.03
2018-01-24T05:15:50.436Z,14.93
2018-01-24T05:18:17.896Z,14.80
2018-01-24T05:20:46.664Z,13.87
2018-01-24T05:23:14.116Z,13.40
2018-01-24T05:25:41.576Z,13.87
2018-01-24T05:28:09.820Z,13.30
2018-01-24T05:30:37.279Z,13.37
2018-01-24T05:33:04.745Z,13.97
2018-01-24T05:35:32.564Z,15.00
2018-01-24T05:38:00.021Z,16.00
2018-01-24T05:40:27.497Z,13.77
2018-01-24T05:42:55.244Z,14.07
2018-01-24T05:45:22.698Z,12.97
2018-01-24T05:47:50.148Z,12.93
2018-01-24T05:50:17.933Z,14.80
2018-01-24T05:52:45.393Z,13.30
2018-01-24T05:55:12.848Z,15.57
2018-01-24T05:57:40.627Z,15.90
2018-01-24T06:00:08.084Z,13.83
2018-01-24T06:02:35.550Z,14.50
2018-01-24T06:05:03.309Z,15.37
2018-01-24T06:07:30.782Z,14.87
2018-01-24T06:09:58.240Z,15.07
2018-01-24T06:12:26.300Z,15.50
2018-01-24T06:14:53.756Z,15.83
2018-01-24T06:17:21.221Z,15.53
2018-01-24T06:19:48.988Z,17.00
2018-01-24T06:22:16.448Z,19.50
2018-01-24T06:24:43.907Z,24.60
2018-01-24T06:27:11.691Z,23.17
2018-01-24T06:29:39.170Z,23.17
2018-01-24T06:32:06.624Z,25.80
2018-01-24T06:34:34.352Z,23.30
2018-01-24T06:37:01.805Z,26.87
2018-01-24T06:39:29.262Z,23.33
2018-01-24T06:41:56.973Z,24.83
2018-01-24T06:44:24.431Z,23.43
2018-01-24T06:46:51.893Z,23.47
2018-01-24T06:49:20.007Z,22.67
2018-01-24T06:51:47.460Z,23.70
2018-01-24T06:54:14.927Z,24.57
2018-01-24T06:56:42.727Z,24.20
2018-01-24T06:59:10.185Z,23.50
2018-01-24T07:01:37.632Z,25.27
2018-01-24T07:04:05.366Z,23.20
2018-01-24T07:06:32.824Z,22.23
2018-01-24T07:09:00.297Z,23.30
2018-01-24T07:11:28.101Z,22.67
2018-01-24T07:14:07.561Z,23.37
2018-01-24T07:16:35.376Z,22.70
2018-01-24T07:19:02.827Z,23.90
2018-01-24T07:21:30.287Z,23.53
2018-01-24T07:24:00.457Z,24.10
2018-01-24T07:26:27.928Z,26.57
2018-01-24T07:28:55.384Z,22.63
2018-01-24T07:31:23.148Z,23.43
2018-01-24T07:33:50.612Z,24.40
2018-01-24T07:36:18.068Z,24.37
2018-01-24T07:38:45.833Z,21.10
2018-01-24T07:41:13.288Z,20.33
2018-01-24T07:43:40.745Z,21.37
2018-01-24T07:46:08.519Z,25.50
2018-01-24T07:48:35.972Z,20.43
2018-01-24T07:51:03.425Z,18.40
2018-01-24T07:53:31.207Z,17.00
2018-01-24T07:55:58.736Z,15.30
2018-01-24T07:58:26.197Z,15.27
2018-01-24T08:00:54.209Z,14.10
2018-01-24T08:03:21.669Z,13.93
2018-01-24T08:05:49.144Z,13.90
2018-01-24T08:08:16.893Z,13.27
2018-01-24T08:10:44.354Z,13.50
2018-01-24T08:13:11.811Z,13.87
2018-01-24T08:15:40.237Z,13.60
2018-01-24T08:18:07.696Z,14.40
2018-01-24T08:20:35.161Z,14.80
2018-01-24T08:23:02.884Z,15.57
2018-01-24T08:25:30.340Z,11.80
2018-01-24T08:27:57.792Z,13.87
2018-01-24T08:30:25.568Z,12.67
2018-01-24T08:32:53.027Z,12.30
2018-01-24T08:35:20.478Z,11.93
2018-01-24T08:37:48.247Z,13.57
2018-01-24T08:40:16.845Z,12.70
2018-01-24T08:42:44.304Z,11.80
2018-01-24T08:45:12.164Z,12.23
2018-01-24T08:47:39.621Z,11.57
2018-01-24T08:50:07.139Z,12.40
2018-01-24T08:52:34.852Z,12.53
2018-01-24T08:55:02.316Z,11.93
2018-01-24T08:57:29.785Z,12.37
2018-01-24T08:59:57.559Z,11.43
2018-01-24T09:02:25.017Z,11.73
2018-01-24T09:04:52.475Z,11.40
2018-01-24T09:07:20.224Z,12.10
2018-01-24T09:09:47.675Z,10.47
2018-01-24T09:12:15.129Z,12.40
2018-01-24T09:14:43.117Z,10.10
2018-01-24T09:17:10.756Z,10.30
2018-01-24T09:19:38.209Z,9.53
2018-01-24T09:22:06.084Z,11.10
2018-01-24T09:24:33.533Z,14.60
2018-01-24T09:27:00.988Z,13.57
2018-01-24T09:29:28.905Z,14.83
2018-01-24T09:31:56.358Z,16.03
2018-01-24T09:34:23.818Z,13.40
2018-01-24T09:36:51.594Z,14.57
2018-01-24T09:39:19.044Z,13.67
2018-01-24T09:41:46.496Z,14.20
2018-01-24T09:44:14.285Z,16.00
2018-01-24T09:46:41.771Z,14.90
2018-01-24T09:49:09.422Z,14.33
2018-01-24T09:51:37.289Z,13.10
2018-01-24T09:54:04.753Z,11.97
2018-01-24T09:56:32.202Z,11.63
2018-01-24T09:58:59.964Z,12.40
2018-01-24T10:01:27.413Z,9.97
2018-01-24T10:03:54.869Z,10.40
2018-01-24T10:06:22.641Z,11.43
2018-01-24T10:08:50.090Z,13.47
2018-01-24T10:11:17.533Z,12.47
2018-01-24T10:13:45.640Z,13.23
2018-01-24T10:16:14.719Z,13.23
2018-01-24T10:18:42.689Z,15.10
2018-01-24T10:21:10.472Z,14.00
2018-01-24T10:23:37.912Z,13.33
2018-01-24T10:26:05.404Z,14.60
2018-01-24T10:28:33.072Z,15.27
2018-01-24T10:31:00.551Z,14.57
2018-01-24T10:33:28.008Z,14.67
2018-01-24T10:35:55.841Z,14.50
2018-01-24T10:38:23.298Z,13.67
2018-01-24T10:40:50.754Z,11.47
2018-01-24T10:43:18.540Z,12.27
2018-01-24T10:45:46.002Z,10.70
2018-01-24T10:48:13.457Z,10.43
2018-01-24T10:50:41.537Z,11.63
2018-01-24T10:53:08.996Z,11.47
2018-01-24T10:55:36.454Z,11.20
2018-01-24T10:58:04.168Z,11.73
2018-01-24T11:00:31.622Z,13.30
2018-01-24T11:02:59.085Z,12.33
2018-01-24T11:05:26.901Z,12.27
2018-01-24T11:07:54.356Z,13.63
2018-01-24T11:10:21.800Z,11.97
2018-01-24T11:12:49.640Z,11.43
2018-01-24T11:15:17.098Z,10.27
2018-01-24T11:17:44.545Z,11.57
2018-01-24T11:20:14.169Z,10.40
2018-01-24T11:22:41.634Z,11.80
2018-01-24T11:25:09.088Z,11.87
2018-01-24T11:27:36.820Z,10.70
2018-01-24T11:30:04.275Z,9.77
2018-01-24T11:32:31.720Z,10.37
2018-01-24T11:34:59.498Z,10.90
2018-01-24T11:37:26.960Z,10.37
2018-01-24T11:39:54.417Z,9.53
2018-01-24T11:42:22.152Z,10.00
2018-01-24T11:44:49.599Z,10.03
2018-01-24T11:47:17.056Z,9.73
2018-01-24T11:49:44.865Z,10.93
2018-01-24T11:52:12.309Z,10.73
2018-01-24T11:54:39.765Z,11.53
2018-01-24T11:57:07.496Z,10.53
2018-01-24T11:59:34.962Z,10.23
2018-01-24T12:02:02.421Z,10.57
2018-01-24T12:04:31.784Z,11.07
2018-01-24T12:06:59.247Z,10.60
2018-01-24T12:09:26.785Z,8.77
2018-01-24T12:11:54.572Z,8.63
2018-01-24T12:14:22.029Z,8.00
2018-01-24T12:16:49.480Z,8.43
2018-01-24T12:19:17.186Z,8.40
2018-01-24T12:21:45.292Z,7.93
2018-01-24T12:24:12.743Z,9.57
2018-01-24T12:26:40.449Z,9.37
2018-01-24T12:29:07.905Z,9.10
2018-01-24T12:31:35.352Z,8.43
2018-01-24T12:34:03.138Z,8.33
2018-01-24T12:36:30.581Z,9.77
2018-01-24T12:38:58.021Z,8.70
2018-01-24T12:41:25.826Z,9.70
2018-01-24T12:43:53.282Z,9.47
2018-01-24T12:46:20.733Z,9.00
2018-01-24T12:48:48.836Z,11.03
2018-01-24T12:51:16.318Z,11.17
2018-01-24T12:53:43.768Z,9.83
2018-01-24T12:56:11.829Z,12.03
2018-01-24T12:58:39.284Z,12.10
2018-01-24T13:01:06.745Z,13.33
2018-01-24T13:03:34.496Z,13.43
2018-01-24T13:06:01.968Z,12.30
2018-01-24T13:08:29.427Z,12.00
2018-01-24T13:10:57.496Z,12.37
2018-01-24T13:13:24.957Z,11.13
2018-01-24T13:15:52.412Z,12.23
2018-01-24T13:18:20.181Z,15.27
2018-01-24T13:20:47.638Z,11.17
2018-01-24T13:23:15.493Z,16.67
2018-01-24T13:25:43.208Z,14.67
2018-01-24T13:28:10.665Z,16.07
2018-01-24T13:30:38.121Z,16.10
2018-01-24T13:33:05.753Z,18.70
2018-01-24T13:35:33.196Z,18.70
2018-01-24T13:38:00.648Z,18.60
2018-01-24T13:40:28.575Z,20.70
2018-01-24T13:42:56.033Z,20.47
2018-01-24T13:45:23.488Z,22.43
2018-01-24T13:47:51.248Z,20.20
2018-01-24T13:50:18.704Z,18.80
2018-01-24T13:52:46.157Z,17.60
2018-01-24T13:55:13.933Z,20.27
2018-01-24T13:57:41.400Z,18.00
2018-01-24T14:00:08.857Z,17.90
2018-01-24T14:02:36.917Z,18.90
2018-01-24T14:05:04.375Z,19.17
2018-01-24T14:07:31.834Z,18.70
2018-01-24T14:09:59.629Z,18.57
2018-01-24T14:12:27.088Z,16.40
2018-01-24T14:14:54.545Z,16.90
2018-01-24T14:17:22.308Z,16.10
2018-01-24T14:19:49.777Z,18.90
2018-01-24T14:22:17.251Z,16.13
2018-01-24T14:24:46.205Z,18.70
2018-01-24T14:27:13.653Z,19.27
2018-01-24T14:29:41.109Z,18.03
2018-01-24T14:32:08.742Z,18.10
2018-01-24T14:34:36.204Z,18.67
2018-01-24T14:37:03.664Z,18.67
2018-01-24T14:39:31.598Z,16.60
2018-01-24T14:41:59.049Z,15.03
2018-01-24T14:44:26.511Z,14.67
2018-01-24T14:46:54.268Z,15.10
2018-01-24T14:49:21.722Z,14.90
2018-01-24T14:51:49.185Z,20.47
2018-01-24T14:54:16.964Z,16.93
2018-01-24T14:56:44.440Z,15.37
2018-01-24T14:59:11.899Z,15.63
2018-01-24T15:01:39.652Z,16.10
2018-01-24T15:04:07.116Z,12.70
2018-01-24T15:06:34.584Z,13.97
2018-01-24T15:09:02.307Z,14.70
2018-01-24T15:11:29.755Z,12.33
2018-01-24T15:13:57.213Z,12.13
2018-01-24T15:16:25.025Z,10.50
2018-01-24T15:18:52.508Z,11.53
2018-01-24T15:21:20.028Z,10.57
2018-01-24T15:23:47.700Z,10.33
2018-01-24T15:26:15.849Z,9.67
2018-01-24T15:28:43.301Z,11.90
2018-01-24T15:31:11.320Z,10.17
2018-01-24T15:33:38.768Z,9.20
2018-01-24T15:36:06.218Z,9.63
2018-01-24T15:38:34.005Z,10.20
2018-01-24T15:41:01.457Z,9.80
2018-01-24T15:43:28.909Z,10.00
2018-01-24T15:45:56.685Z,9.90
2018-01-24T15:48:24.134Z,9.13
2018-01-24T15:50:51.584Z,9.97
2018-01-24T15:53:19.380Z,11.10
2018-01-24T15:55:46.824Z,9.83
2018-01-24T15:58:14.276Z,11.70
2018-01-24T16:00:42.059Z,10.80
2018-01-24T16:03:09.507Z,11.40
2018-01-24T16:05:36.974Z,12.93
2018-01-24T16:08:04.741Z,12.47
2018-01-24T16:10:32.188Z,13.57
2018-01-24T16:12:59.642Z,12.47
2018-01-24T16:15:27.440Z,12.10
2018-01-24T16:17:54.906Z,11.87
2018-01-24T16:20:22.359Z,12.20
2018-01-24T16:22:50.121Z,14.73
2018-01-24T16:25:17.580Z,16.30
2018-01-24T16:27:45.028Z,20.53
2018-01-24T16:30:12.740Z,18.87
2018-01-24T16:32:40.200Z,16.47
2018-01-24T16:35:07.656Z,16.00
2018-01-24T16:37:35.526Z,16.80
2018-01-24T16:40:03.002Z,15.90
2018-01-24T16:42:30.474Z,24.40
2018-01-24T16:44:58.182Z,29.73
2018-01-24T16:47:25.634Z,17.70
2018-01-24T16:49:53.095Z,17.10
2018-01-24T16:52:21.203Z,38.83
2018-01-24T16:54:48.656Z,28.30
2018-01-24T16:57:16.108Z,23.10
2018-01-24T16:59:43.863Z,20.80
2018-01-24T17:02:11.328Z,16.97
2018-01-24T17:04:38.794Z,18.70
2018-01-24T17:07:06.561Z,18.23
2018-01-24T17:09:34.021Z,17.37
2018-01-24T17:12:01.480Z,17.40
2018-01-24T17:14:29.237Z,18.30
2018-01-24T17:16:56.715Z,18.43
2018-01-24T17:19:24.166Z,19.53
2018-01-24T17:21:51.929Z,18.83
2018-01-24T17:24:19.394Z,19.00
2018-01-24T17:26:46.865Z,21.37
2018-01-24T17:29:17.682Z,17.43
2018-01-24T17:31:45.141Z,19.70
2018-01-24T17:34:12.604Z,21.50
2018-01-24T17:36:40.684Z,20.10
2018-01-24T17:39:08.144Z,21.20
2018-01-24T17:41:35.621Z,20.67
2018-01-24T17:44:03.727Z,18.50
2018-01-24T17:46:31.192Z,18.67
2018-01-24T17:48:58.649Z,20.07
2018-01-24T17:51:26.355Z,19.77
2018-01-24T17:53:53.864Z,18.40
2018-01-24T17:56:21.334Z,26.40
2018-01-24T17:58:49.116Z,28.23
2018-01-24T18:01:16.583Z,22.83
2018-01-24T18:03:44.059Z,19.60
2018-01-24T18:06:11.910Z,25.20
2018-01-24T18:08:39.360Z,36.30
2018-01-24T18:11:06.816Z,29.47
2018-01-24T18:13:34.923Z,22.63
2018-01-24T18:16:03.389Z,19.20
2018-01-24T18:18:32.365Z,19.07
2018-01-24T18:21:01.851Z,18.70
2018-01-24T18:23:29.416Z,18.73
2018-01-24T18:25:56.878Z,17.47
2018-01-24T18:28:24.718Z,18.90
2018-01-24T18:30:54.505Z,15.47
2018-01-24T18:33:23.483Z,16.13
2018-01-24T18:35:53.128Z,16.60
2018-01-24T18:38:21.042Z,18.77
2018-01-24T18:40:50.203Z,11.30
2018-01-24T18:43:18.152Z,12.40
2018-01-24T18:45:47.476Z,13.47
2018-01-24T18:48:15.129Z,12.10
2018-01-24T18:50:42.931Z,15.10
2018-01-24T18:53:11.992Z,18.70
2018-01-24T18:55:39.525Z,15.57
2018-01-24T18:58:07.457Z,16.03
2018-01-24T19:00:34.914Z,14.83
2018-01-24T19:03:02.386Z,13.93
2018-01-24T19:05:30.125Z,14.67
2018-01-24T19:07:57.580Z,13.07
2018-01-24T19:10:25.040Z,15.90
2018-01-24T19:12:53.130Z,14.20
2018-01-24T19:15:20.599Z,15.50
2018-01-24T19:17:48.075Z,17.07
2018-01-24T19:20:16.426Z,16.40
2018-01-24T19:22:44.183Z,16.40
2018-01-24T19:25:12.361Z,13.67
2018-01-24T19:27:39.972Z,16.07
2018-01-24T19:30:07.441Z,26.33
2018-01-24T19:32:36.506Z,25.60
2018-01-24T19:35:04.569Z,43.57
2018-01-24T19:37:32.031Z,28.30
2018-01-24T19:39:59.487Z,24.80
2018-01-24T19:42:27.268Z,19.80
2018-01-24T19:44:54.766Z,19.63
2018-01-24T19:47:23.865Z,29.27
2018-01-24T19:49:52.068Z,25.00
2018-01-24T19:52:19.666Z,28.60
2018-01-24T19:54:47.444Z,24.60
2018-01-24T19:57:15.932Z,22.03
2018-01-24T19:59:44.345Z,25.43
2018-01-24T20:02:11.989Z,21.93
2018-01-24T20:04:40.397Z,46.42
2018-01-24T20:07:07.843Z,35.03
2018-01-24T20:09:35.379Z,30.73
2018-01-24T20:12:04.450Z,28.67
2018-01-24T20:14:31.986Z,29.03
2018-01-24T20:16:59.436Z,27.97
2018-01-24T20:19:27.763Z,28.60
2018-01-24T20:21:55.720Z,26.40
2018-01-24T20:24:23.336Z,26.70
2018-01-24T20:26:51.372Z,30.70
2018-01-24T20:29:18.823Z,29.10
2018-01-24T20:31:46.891Z,31.67
2018-01-24T20:34:16.184Z,26.70
2018-01-24T20:36:43.652Z,26.10
2018-01-24T20:39:11.113Z,25.80
2018-01-24T20:41:38.827Z,30.67
2018-01-24T20:44:07.335Z,32.50
2018-01-24T20:46:36.002Z,34.47
2018-01-24T20:49:04.340Z,29.77
2018-01-24T20:51:31.791Z,25.37
2018-01-24T20:53:59.269Z,30.87
2018-01-24T20:56:27.018Z,30.43
2018-01-24T20:58:54.481Z,25.93
2018-01-24T21:01:21.948Z,27.20
2018-01-24T21:03:49.710Z,37.83
2018-01-24T21:13:00.848Z,28.07
2018-01-24T21:15:28.309Z,25.27
2018-01-24T21:17:55.756Z,25.30
2018-01-24T21:20:23.526Z,28.13
2018-01-24T21:22:50.972Z,27.07
2018-01-24T21:25:18.435Z,25.37
2018-01-24T21:27:46.524Z,27.10
2018-01-24T21:30:21.674Z,26.67
2018-01-24T21:33:01.404Z,25.20
2018-01-24T21:35:42.061Z,27.23
2018-01-24T21:38:09.845Z,23.03
2018-01-24T21:40:37.300Z,22.70
2018-01-24T21:43:04.756Z,26.20
2018-01-24T21:45:32.534Z,28.30
2018-01-24T21:48:00.007Z,24.33
2018-01-24T21:50:27.477Z,20.20
2018-01-24T21:52:55.540Z,20.70
2018-01-24T21:55:23.008Z,21.40
2018-01-24T21:57:50.464Z,19.83
2018-01-24T22:00:18.529Z,20.40
2018-01-24T22:02:46.004Z,23.20
2018-01-24T22:05:13.461Z,20.83
2018-01-24T22:07:41.205Z,20.97
2018-01-24T22:10:08.660Z,20.80
2018-01-24T22:12:36.115Z,21.47
2018-01-24T22:15:03.909Z,20.53
2018-01-24T22:17:31.473Z,20.60
2018-01-24T22:19:58.928Z,20.27
2018-01-24T22:22:26.897Z,24.50
2018-01-24T22:24:54.356Z,20.20
2018-01-24T22:27:21.821Z,19.70
2018-01-24T22:29:49.583Z,20.80
2018-01-24T22:32:17.049Z,18.37
2018-01-24T22:34:44.540Z,20.17
2018-01-24T22:37:12.876Z,19.90
2018-01-24T22:39:40.332Z,19.20
2018-01-24T22:42:07.787Z,19.67
2018-01-24T22:44:35.574Z,19.10
2018-01-24T22:47:03.040Z,20.33
2018-01-24T22:49:30.493Z,20.87
2018-01-24T22:51:58.243Z,20.70
2018-01-24T22:54:25.696Z,18.67
2018-01-24T22:56:53.153Z,18.40
2018-01-24T22:59:20.951Z,19.17
2018-01-24T23:01:48.404Z,20.40
2018-01-24T23:04:15.853Z,21.87
2018-01-24T23:06:43.625Z,18.93
2018-01-24T23:09:11.083Z,17.80
2018-01-24T23:11:38.553Z,20.40
2018-01-24T23:14:06.164Z,19.70
2018-01-24T23:16:33.625Z,19.57
2018-01-24T23:19:01.077Z,23.27
2018-01-24T23:21:29.000Z,26.67
2018-01-24T23:23:56.510Z,22.10
2018-01-24T23:26:23.932Z,21.10
2018-01-24T23:28:52.001Z,21.60
2018-01-24T23:31:19.449Z,20.30
2018-01-24T23:33:46.902Z,20.10
2018-01-24T23:36:14.680Z,20.93
2018-01-24T23:38:42.528Z,24.57
2018-01-24T23:41:09.979Z,22.30
2018-01-24T23:43:37.685Z,22.40
2018-01-24T23:46:05.141Z,22.97
2018-01-24T23:48:32.596Z,24.27
2018-01-24T23:51:00.370Z,21.93
2018-01-24T23:53:27.833Z,23.57
2018-01-24T23:55:55.290Z,24.20
2018-01-24T23:58:25.201Z,27.60
